Time;durP1;ratioP1;P1;durP2;ratioP2;P2;SDS_P1;SDS_P2;PMS_P1;PMS_P2;Temp;Humidity;BMP_temperature;BMP_pressure;BME280_temperature;BME280_humidity;BME280_pressure;Samples;Min_cycle;Max_cycle;Signal;HPM_P1;HPM_P2
2023/07/31 00:01:47;;;;;;;;;;;20.30;68.00;;;;;;5135911;27;19919;-67
2023/07/31 00:04:12;;;;;;;;;;;20.30;68.00;;;;;;5135499;27;19926;-66
2023/07/31 00:06:38;;;;;;;;;;;20.30;68.00;;;;;;5135885;27;19954;-66
2023/07/31 00:09:03;;;;;;;;;;;20.30;68.00;;;;;;5135365;27;19928;-66
2023/07/31 00:11:29;;;;;;;;;;;20.30;68.00;;;;;;5135844;27;19926;-66
2023/07/31 00:13:54;;;;;;;;;;;20.30;68.10;;;;;;5135057;27;19927;-72
2023/07/31 00:16:20;;;;;;;;;;;20.20;68.00;;;;;;5135447;27;20515;-66
2023/07/31 00:18:45;;;;;;;;;;;20.30;68.10;;;;;;5135561;27;20289;-66
2023/07/31 00:21:11;;;;;;;;;;;20.20;68.10;;;;;;5153993;27;19919;-66
2023/07/31 00:23:36;;;;;;;;;;;20.20;68.10;;;;;;5135561;27;20377;-66
2023/07/31 00:26:02;;;;;;;;;;;20.20;68.10;;;;;;5135779;27;20211;-66
2023/07/31 00:28:28;;;;;;;;;;;20.20;68.10;;;;;;5153701;27;19934;-66
2023/07/31 00:30:54;;;;;;;;;;;20.20;68.20;;;;;;5135683;27;19958;-66
2023/07/31 00:33:19;;;;;;;;;;;20.20;68.20;;;;;;5135415;27;20266;-72
2023/07/31 00:35:45;;;;;;;;;;;20.20;68.20;;;;;;5135630;27;20385;-72
2023/07/31 00:38:10;;;;;;;;;;;20.20;68.20;;;;;;5135278;27;20005;-66
2023/07/31 00:40:37;;;;;;;;;;;20.20;68.20;;;;;;5153758;27;19926;-66
2023/07/31 00:43:03;;;;;;;;;;;20.20;68.20;;;;;;5153863;27;20294;-66
2023/07/31 00:45:28;;;;;;;;;;;20.20;68.30;;;;;;5135168;27;19979;-65
2023/07/31 00:47:54;;;;;;;;;;;20.20;68.30;;;;;;5135558;27;19927;-65
2023/07/31 00:50:19;;;;;;;;;;;20.20;68.30;;;;;;5135103;27;20358;-66
2023/07/31 00:52:45;;;;;;;;;;;20.20;68.30;;;;;;5135323;27;19987;-65
2023/07/31 00:55:11;;;;;;;;;;;20.10;68.30;;;;;;5153938;27;20419;-65
2023/07/31 00:57:36;;;;;;;;;;;20.10;68.20;;;;;;5135411;27;19919;-65
2023/07/31 01:00:03;;;;;;;;;;;20.20;69.10;;;;;;5135005;27;19919;-64
2023/07/31 01:02:28;;;;;;;;;;;20.10;68.30;;;;;;5153615;27;20317;-65
2023/07/31 01:04:54;;;;;;;;;;;20.10;68.30;;;;;;5134937;27;19923;-65
2023/07/31 01:07:30;;;;;;;;;;;20.10;68.40;;;;;;5153598;27;20002;-69
2023/07/31 01:10:03;;;;;;;;;;;20.10;68.40;;;;;;5153482;27;19919;-65
2023/07/31 01:12:30;;;;;;;;;;;20.10;68.40;;;;;;5153267;27;19946;-65
2023/07/31 01:15:11;;;;;;;;;;;20.10;68.40;;;;;;5134910;27;19923;-65
2023/07/31 01:17:37;;;;;;;;;;;20.10;68.40;;;;;;5153471;27;20393;-65
2023/07/31 01:20:04;;;;;;;;;;;20.10;68.50;;;;;;5153678;27;19919;-65
2023/07/31 01:22:40;;;;;;;;;;;20.10;68.50;;;;;;5138995;27;19926;-65
2023/07/31 01:25:17;;;;;;;;;;;20.10;68.50;;;;;;5156997;27;19933;-69
2023/07/31 01:28:02;;;;;;;;;;;20.10;68.50;;;;;;5157086;27;20391;-65
2023/07/31 01:30:33;;;;;;;;;;;20.10;68.50;;;;;;5138673;27;19959;-65
2023/07/31 01:32:59;;;;;;;;;;;20.10;68.50;;;;;;5138509;27;19919;-65
2023/07/31 01:35:25;;;;;;;;;;;20.10;68.50;;;;;;5138642;27;19933;-65
2023/07/31 01:37:52;;;;;;;;;;;20.10;68.60;;;;;;5138615;27;19919;-65
2023/07/31 01:40:18;;;;;;;;;;;20.10;68.60;;;;;;5138536;27;19930;-65
2023/07/31 01:42:43;;;;;;;;;;;20.00;68.60;;;;;;5138292;27;20298;-65
2023/07/31 01:45:09;;;;;;;;;;;20.00;68.60;;;;;;5138503;27;19919;-65
2023/07/31 01:47:34;;;;;;;;;;;20.10;68.60;;;;;;5138432;27;19923;-65
2023/07/31 01:50:00;;;;;;;;;;;20.10;68.60;;;;;;5138097;27;19919;-70
2023/07/31 01:52:25;;;;;;;;;;;20.00;68.70;;;;;;5138237;27;20285;-65
2023/07/31 01:54:51;;;;;;;;;;;20.00;68.60;;;;;;5137975;27;19930;-71
2023/07/31 01:57:17;;;;;;;;;;;20.00;68.70;;;;;;5138150;27;19930;-64
2023/07/31 01:59:42;;;;;;;;;;;20.00;68.70;;;;;;5138242;27;19962;-65
2023/07/31 02:02:08;;;;;;;;;;;20.00;68.70;;;;;;5137867;27;19919;-65
2023/07/31 02:04:34;;;;;;;;;;;20.10;68.80;;;;;;5156479;27;19919;-65
2023/07/31 02:06:59;;;;;;;;;;;20.00;68.70;;;;;;5137773;27;19956;-65
2023/07/31 02:09:25;;;;;;;;;;;20.00;68.80;;;;;;5138018;27;20318;-65
2023/07/31 02:11:50;;;;;;;;;;;20.00;68.80;;;;;;5137602;27;19919;-70
2023/07/31 02:14:16;;;;;;;;;;;20.00;68.80;;;;;;5137380;27;20052;-65
2023/07/31 02:16:42;;;;;;;;;;;20.00;68.80;;;;;;5156224;27;20285;-65
2023/07/31 02:19:08;;;;;;;;;;;20.00;68.80;;;;;;5137863;27;20009;-66
2023/07/31 02:21:33;;;;;;;;;;;20.00;68.90;;;;;;5137515;27;20461;-70
2023/07/31 02:23:59;;;;;;;;;;;20.00;68.80;;;;;;5137631;27;19926;-71
2023/07/31 02:26:24;;;;;;;;;;;20.00;68.90;;;;;;5137741;27;20370;-65
2023/07/31 02:28:50;;;;;;;;;;;20.00;68.90;;;;;;5137258;27;20370;-66
2023/07/31 02:31:15;;;;;;;;;;;20.00;68.90;;;;;;5155880;27;19926;-65
2023/07/31 02:33:40;;;;;;;;;;;20.00;68.90;;;;;;5137182;27;19923;-65
2023/07/31 02:36:06;;;;;;;;;;;20.00;68.90;;;;;;5155789;27;19964;-66
2023/07/31 02:38:31;;;;;;;;;;;20.00;68.90;;;;;;5137470;27;20014;-65
2023/07/31 02:40:57;;;;;;;;;;;20.00;69.00;;;;;;5137264;27;20362;-65
2023/07/31 02:43:22;;;;;;;;;;;20.00;68.90;;;;;;5137042;27;20092;-65
2023/07/31 02:45:52;;;;;;;;;;;20.00;68.90;;;;;;5137336;27;19919;-65
2023/07/31 02:48:17;;;;;;;;;;;20.00;69.00;;;;;;5136946;27;19923;-65
2023/07/31 02:50:43;;;;;;;;;;;20.00;69.00;;;;;;5137201;27;19919;-66
2023/07/31 02:53:08;;;;;;;;;;;20.00;69.00;;;;;;5137019;27;19974;-65
2023/07/31 02:55:34;;;;;;;;;;;20.00;69.00;;;;;;5137056;27;19931;-65
2023/07/31 02:57:59;;;;;;;;;;;20.00;69.00;;;;;;5155259;27;19919;-65
2023/07/31 03:00:25;;;;;;;;;;;20.00;69.00;;;;;;5136841;27;20369;-65
2023/07/31 03:02:50;;;;;;;;;;;20.00;69.00;;;;;;5136828;27;19919;-65
2023/07/31 03:05:16;;;;;;;;;;;20.00;69.00;;;;;;5136856;27;19926;-65
2023/07/31 03:07:41;;;;;;;;;;;20.00;69.10;;;;;;5136565;27;20039;-70
2023/07/31 03:10:07;;;;;;;;;;;20.00;69.10;;;;;;5154984;27;19919;-65
2023/07/31 03:12:32;;;;;;;;;;;20.00;69.10;;;;;;5135700;27;19927;-65
2023/07/31 03:14:58;;;;;;;;;;;20.00;69.10;;;;;;5154707;27;19927;-65
2023/07/31 03:17:23;;;;;;;;;;;20.00;69.10;;;;;;5136384;27;19936;-66
2023/07/31 03:19:49;;;;;;;;;;;20.00;69.10;;;;;;5136261;27;19998;-65
2023/07/31 03:22:14;;;;;;;;;;;20.00;69.10;;;;;;5154967;27;19932;-71
2023/07/31 03:24:40;;;;;;;;;;;20.00;69.10;;;;;;5136295;27;20576;-66
2023/07/31 03:27:06;;;;;;;;;;;20.00;69.10;;;;;;5136360;27;19918;-65
2023/07/31 03:29:31;;;;;;;;;;;20.00;69.20;;;;;;5136105;27;19919;-65
2023/07/31 03:31:57;;;;;;;;;;;20.00;69.20;;;;;;5136362;27;19919;-65
2023/07/31 03:34:22;;;;;;;;;;;19.90;69.10;;;;;;5135934;27;19971;-64
2023/07/31 03:36:47;;;;;;;;;;;19.90;69.20;;;;;;5136396;27;19919;-65
2023/07/31 03:39:13;;;;;;;;;;;20.00;69.20;;;;;;5154864;27;19919;-65
2023/07/31 03:41:39;;;;;;;;;;;20.00;69.30;;;;;;5135903;27;19942;-65
2023/07/31 03:44:04;;;;;;;;;;;19.90;69.20;;;;;;5154014;27;20754;-65
2023/07/31 03:46:30;;;;;;;;;;;19.90;69.20;;;;;;5136196;27;19942;-66
2023/07/31 03:48:55;;;;;;;;;;;19.90;69.20;;;;;;5154390;27;20029;-66
2023/07/31 03:51:21;;;;;;;;;;;19.90;69.20;;;;;;5135779;27;19920;-66
2023/07/31 03:53:46;;;;;;;;;;;19.90;69.30;;;;;;5154326;27;19923;-65
2023/07/31 03:56:11;;;;;;;;;;;19.90;69.30;;;;;;5118888;27;19919;-65
2023/07/31 03:58:37;;;;;;;;;;;19.90;69.30;;;;;;5135920;27;20380;-65
2023/07/31 04:01:03;;;;;;;;;;;20.00;69.40;;;;;;5154175;27;19919;-65
2023/07/31 04:03:29;;;;;;;;;;;19.90;69.30;;;;;;5135888;27;19919;-65
2023/07/31 04:05:56;;;;;;;;;;;19.90;69.30;;;;;;5135923;27;19922;-65
2023/07/31 04:08:21;;;;;;;;;;;19.90;69.30;;;;;;5135863;27;19919;-64
2023/07/31 04:10:47;;;;;;;;;;;19.90;69.40;;;;;;5134803;27;19919;-65
2023/07/31 04:13:12;;;;;;;;;;;20.00;69.50;;;;;;5135060;27;19923;-65
2023/07/31 04:15:38;;;;;;;;;;;19.90;69.40;;;;;;5135391;27;20006;-65
2023/07/31 04:18:04;;;;;;;;;;;19.90;69.40;;;;;;5135988;27;20014;-64
2023/07/31 04:20:30;;;;;;;;;;;20.00;69.50;;;;;;5135457;27;20438;-64
2023/07/31 04:22:55;;;;;;;;;;;20.00;69.50;;;;;;5135446;27;19919;-65
2023/07/31 04:25:21;;;;;;;;;;;19.90;69.50;;;;;;5135725;27;19919;-65
2023/07/31 04:27:46;;;;;;;;;;;19.90;69.50;;;;;;5135260;27;20390;-65
2023/07/31 04:30:11;;;;;;;;;;;19.90;69.50;;;;;;5135362;27;19919;-65
2023/07/31 04:32:37;;;;;;;;;;;19.90;69.60;;;;;;5135274;27;20293;-65
2023/07/31 04:35:03;;;;;;;;;;;19.90;69.60;;;;;;5135676;27;19919;-64
2023/07/31 04:37:28;;;;;;;;;;;19.90;69.60;;;;;;5153824;27;20017;-64
2023/07/31 04:39:54;;;;;;;;;;;19.90;69.60;;;;;;5135611;27;19922;-65
2023/07/31 04:42:19;;;;;;;;;;;19.90;69.70;;;;;;5135253;27;20293;-64
2023/07/31 04:44:45;;;;;;;;;;;19.90;69.60;;;;;;5153732;27;20010;-64
2023/07/31 04:47:10;;;;;;;;;;;19.90;69.70;;;;;;5135486;27;19927;-65
2023/07/31 04:49:36;;;;;;;;;;;19.90;69.70;;;;;;5153751;27;19919;-65
2023/07/31 04:52:01;;;;;;;;;;;19.90;69.70;;;;;;5135139;27;19968;-65
2023/07/31 04:54:27;;;;;;;;;;;19.90;69.80;;;;;;5153619;27;20329;-64
2023/07/31 04:56:52;;;;;;;;;;;19.90;69.80;;;;;;5156798;27;19953;-65
2023/07/31 04:59:18;;;;;;;;;;;19.90;69.80;;;;;;5139418;27;19923;-65
2023/07/31 05:01:45;;;;;;;;;;;19.90;69.80;;;;;;5139347;27;19936;-65
2023/07/31 05:04:12;;;;;;;;;;;19.90;69.80;;;;;;5139280;27;19923;-65
2023/07/31 05:06:38;;;;;;;;;;;19.90;69.90;;;;;;5139612;27;20281;-66
2023/07/31 05:09:03;;;;;;;;;;;19.80;69.80;;;;;;5139168;27;19919;-65
2023/07/31 05:11:28;;;;;;;;;;;19.90;69.90;;;;;;5139272;27;20056;-65
2023/07/31 05:13:54;;;;;;;;;;;19.90;69.90;;;;;;5138447;27;20127;-65
2023/07/31 05:16:19;;;;;;;;;;;19.90;69.90;;;;;;5157205;27;19919;-66
2023/07/31 05:18:45;;;;;;;;;;;19.90;69.90;;;;;;5157246;27;19925;-65
2023/07/31 05:21:10;;;;;;;;;;;19.90;69.90;;;;;;5139032;27;19919;-65
2023/07/31 05:23:36;;;;;;;;;;;19.90;69.90;;;;;;5157118;27;19945;-66
2023/07/31 05:26:03;;;;;;;;;;;19.90;70.00;;;;;;5157237;27;19919;-65
2023/07/31 05:28:29;;;;;;;;;;;19.90;70.00;;;;;;5138747;27;19919;-66
2023/07/31 05:30:58;;;;;;;;;;;19.90;70.00;;;;;;5138514;27;19919;-65
2023/07/31 05:33:24;;;;;;;;;;;19.90;70.00;;;;;;5138672;27;19935;-66
2023/07/31 05:35:49;;;;;;;;;;;19.90;70.00;;;;;;5138660;27;19926;-65
2023/07/31 05:38:15;;;;;;;;;;;19.90;70.00;;;;;;5138342;27;19965;-66
2023/07/31 05:40:42;;;;;;;;;;;19.90;70.00;;;;;;5138662;27;19946;-65
2023/07/31 05:43:08;;;;;;;;;;;19.90;70.80;;;;;;5156868;27;19923;-66
2023/07/31 05:45:33;;;;;;;;;;;19.90;70.00;;;;;;5138464;27;19926;-66
2023/07/31 05:47:59;;;;;;;;;;;19.90;70.00;;;;;;5138273;27;19926;-65
2023/07/31 05:50:24;;;;;;;;;;;19.90;70.10;;;;;;5156902;27;19923;-66
2023/07/31 05:52:50;;;;;;;;;;;19.90;70.10;;;;;;5138097;27;20006;-65
2023/07/31 05:55:16;;;;;;;;;;;19.90;70.10;;;;;;5138305;27;20017;-65
2023/07/31 05:57:41;;;;;;;;;;;19.90;70.10;;;;;;5138350;27;19919;-66
2023/07/31 06:00:07;;;;;;;;;;;19.90;70.10;;;;;;5138203;27;19919;-66
2023/07/31 06:02:36;;;;;;;;;;;19.90;70.10;;;;;;5137918;27;19919;-66
2023/07/31 06:05:02;;;;;;;;;;;19.90;70.10;;;;;;5138102;27;19948;-71
2023/07/31 06:07:28;;;;;;;;;;;19.90;70.20;;;;;;5137723;27;19923;-66
2023/07/31 06:09:54;;;;;;;;;;;19.90;70.20;;;;;;5141879;27;19919;-65
2023/07/31 06:12:20;;;;;;;;;;;19.90;70.20;;;;;;5146539;27;19949;-65
2023/07/31 06:14:45;;;;;;;;;;;19.90;70.30;;;;;;5158291;27;20389;-65
2023/07/31 06:17:11;;;;;;;;;;;19.90;70.50;;;;;;5169229;27;19919;-64
2023/07/31 06:19:36;;;;;;;;;;;19.90;70.60;;;;;;5154045;27;19971;-64
2023/07/31 06:22:02;;;;;;;;;;;20.00;70.80;;;;;;5147714;27;19954;-65
2023/07/31 06:24:28;;;;;;;;;;;20.00;71.00;;;;;;5143001;27;19964;-64
2023/07/31 06:26:53;;;;;;;;;;;20.10;71.20;;;;;;5147007;27;19965;-66
2023/07/31 06:29:19;;;;;;;;;;;20.10;71.20;;;;;;5151072;27;19954;-65
2023/07/31 06:31:44;;;;;;;;;;;20.10;71.30;;;;;;5137652;27;19964;-64
2023/07/31 06:34:10;;;;;;;;;;;20.20;71.30;;;;;;5155612;27;19927;-65
2023/07/31 06:36:35;;;;;;;;;;;20.20;71.30;;;;;;5155451;27;20297;-65
2023/07/31 06:39:01;;;;;;;;;;;20.20;71.20;;;;;;5155768;27;19926;-65
2023/07/31 06:41:26;;;;;;;;;;;20.20;71.20;;;;;;5137454;27;20322;-65
2023/07/31 06:43:52;;;;;;;;;;;20.20;71.10;;;;;;5137371;27;20483;-65
2023/07/31 06:46:17;;;;;;;;;;;20.20;71.10;;;;;;5155454;27;20394;-64
2023/07/31 06:48:43;;;;;;;;;;;20.20;71.10;;;;;;5155402;27;19919;-65
2023/07/31 06:51:08;;;;;;;;;;;20.20;71.20;;;;;;5136830;27;19937;-65
2023/07/31 06:53:34;;;;;;;;;;;20.20;71.20;;;;;;5169644;27;19927;-65
2023/07/31 06:55:59;;;;;;;;;;;20.20;71.30;;;;;;5157552;27;19958;-65
2023/07/31 06:58:25;;;;;;;;;;;20.20;71.30;;;;;;5176240;27;19919;-71
2023/07/31 07:00:50;;;;;;;;;;;20.30;71.40;;;;;;5157638;27;20426;-65
2023/07/31 07:03:17;;;;;;;;;;;20.30;71.30;;;;;;5157184;27;19925;-65
2023/07/31 07:05:43;;;;;;;;;;;20.30;71.30;;;;;;5170009;27;19919;-65
2023/07/31 07:08:08;;;;;;;;;;;20.30;71.30;;;;;;5141156;27;19956;-65
2023/07/31 07:10:34;;;;;;;;;;;20.30;71.30;;;;;;5137224;27;19991;-65
2023/07/31 07:12:59;;;;;;;;;;;20.30;71.30;;;;;;5135880;27;19931;-66
2023/07/31 07:15:25;;;;;;;;;;;20.30;71.30;;;;;;5155011;27;20330;-65
2023/07/31 07:17:50;;;;;;;;;;;20.30;71.30;;;;;;5138401;27;19918;-65
2023/07/31 07:20:16;;;;;;;;;;;20.30;71.30;;;;;;5175526;27;20009;-65
2023/07/31 07:22:44;;;;;;;;;;;20.30;71.30;;;;;;5157294;27;19919;-66
2023/07/31 07:25:10;;;;;;;;;;;20.30;71.30;;;;;;5169210;27;20013;-66
2023/07/31 07:27:36;;;;;;;;;;;20.30;71.30;;;;;;5175637;27;19957;-73
2023/07/31 07:30:01;;;;;;;;;;;20.30;71.40;;;;;;5156734;27;19919;-66
2023/07/31 07:32:27;;;;;;;;;;;20.30;71.40;;;;;;5157180;27;19926;-66
2023/07/31 07:34:52;;;;;;;;;;;20.30;71.50;;;;;;5156768;27;19922;-67
2023/07/31 07:37:18;;;;;;;;;;;20.30;71.50;;;;;;5157026;27;19923;-65
2023/07/31 07:39:43;;;;;;;;;;;20.30;71.50;;;;;;5156838;27;19926;-67
2023/07/31 07:42:09;;;;;;;;;;;20.20;71.50;;;;;;5157053;27;19966;-66
2023/07/31 07:44:34;;;;;;;;;;;20.20;71.60;;;;;;5175396;27;20416;-66
2023/07/31 07:47:00;;;;;;;;;;;20.20;71.60;;;;;;5156684;27;19918;-66
2023/07/31 07:49:25;;;;;;;;;;;20.20;71.60;;;;;;5156801;27;19983;-66
2023/07/31 07:51:51;;;;;;;;;;;20.20;71.60;;;;;;5156863;27;20013;-66
2023/07/31 07:54:16;;;;;;;;;;;20.10;71.60;;;;;;5175301;27;19922;-66
2023/07/31 07:56:42;;;;;;;;;;;20.10;71.60;;;;;;5156773;27;19930;-65
2023/07/31 07:59:08;;;;;;;;;;;20.10;71.60;;;;;;5156220;27;19971;-65
2023/07/31 08:01:34;;;;;;;;;;;20.10;71.60;;;;;;5156319;27;19923;-65
2023/07/31 08:03:59;;;;;;;;;;;20.10;71.60;;;;;;5175031;27;20289;-72
2023/07/31 08:06:24;;;;;;;;;;;20.10;71.60;;;;;;5144273;27;19919;-65
2023/07/31 08:08:50;;;;;;;;;;;20.10;71.60;;;;;;5163468;27;19919;-66
2023/07/31 08:11:15;;;;;;;;;;;20.10;71.60;;;;;;5155905;27;20353;-65
2023/07/31 08:13:41;;;;;;;;;;;20.10;71.60;;;;;;5142511;27;20068;-66
2023/07/31 08:16:06;;;;;;;;;;;20.10;71.60;;;;;;5153664;27;19971;-65
2023/07/31 08:18:32;;;;;;;;;;;20.10;71.60;;;;;;5135443;27;19998;-65
2023/07/31 08:20:58;;;;;;;;;;;20.10;71.60;;;;;;5153905;27;19927;-65
2023/07/31 08:23:24;;;;;;;;;;;20.10;71.60;;;;;;5135268;27;19930;-66
2023/07/31 08:25:50;;;;;;;;;;;20.10;71.60;;;;;;5147716;27;19952;-71
2023/07/31 08:28:16;;;;;;;;;;;20.10;71.60;;;;;;5174761;27;19918;-66
2023/07/31 08:30:42;;;;;;;;;;;20.00;71.60;;;;;;5159228;27;19926;-65
2023/07/31 08:33:07;;;;;;;;;;;20.00;72.30;;;;;;5160464;27;19927;-66
2023/07/31 08:35:33;;;;;;;;;;;20.00;71.60;;;;;;5160455;27;19926;-65
2023/07/31 08:37:58;;;;;;;;;;;20.00;71.60;;;;;;5178964;27;19918;-65
2023/07/31 08:40:24;;;;;;;;;;;20.00;71.60;;;;;;5178982;27;19948;-74
2023/07/31 08:42:50;;;;;;;;;;;20.00;71.60;;;;;;5160544;27;19919;-65
2023/07/31 08:45:16;;;;;;;;;;;20.00;71.60;;;;;;5160134;27;20377;-65
2023/07/31 08:47:44;;;;;;;;;;;20.00;71.60;;;;;;5160311;27;19923;-72
2023/07/31 08:50:10;;;;;;;;;;;20.00;71.70;;;;;;5158343;27;19919;-65
2023/07/31 08:52:36;;;;;;;;;;;20.00;71.70;;;;;;5160206;27;19918;-71
2023/07/31 08:55:02;;;;;;;;;;;20.00;71.70;;;;;;5159894;27;19947;-65
2023/07/31 08:57:28;;;;;;;;;;;20.00;71.70;;;;;;5178834;27;19943;-72
2023/07/31 08:59:54;;;;;;;;;;;20.00;71.70;;;;;;5160011;27;19922;-65
2023/07/31 09:02:20;;;;;;;;;;;20.10;71.80;;;;;;5147652;27;19988;-71
2023/07/31 09:04:46;;;;;;;;;;;20.00;71.70;;;;;;5157517;27;20202;-66
2023/07/31 09:07:13;;;;;;;;;;;20.00;71.70;;;;;;5157028;27;20014;-65
2023/07/31 09:09:38;;;;;;;;;;;20.00;71.70;;;;;;5137628;27;19925;-72
2023/07/31 09:12:05;;;;;;;;;;;20.00;71.70;;;;;;5138694;27;19923;-65
2023/07/31 09:14:31;;;;;;;;;;;20.00;71.80;;;;;;5138532;27;20392;-65
2023/07/31 09:16:58;;;;;;;;;;;20.00;71.80;;;;;;5138703;27;19926;-65
2023/07/31 09:19:26;;;;;;;;;;;20.00;71.80;;;;;;5139111;27;19958;-65
2023/07/31 09:21:52;;;;;;;;;;;20.00;71.80;;;;;;5157237;27;20274;-65
2023/07/31 09:24:26;;;;;;;;;;;20.00;71.80;;;;;;5157124;27;19944;-71
2023/07/31 09:26:53;;;;;;;;;;;20.00;71.80;;;;;;5159053;27;19918;-65
2023/07/31 09:29:19;;;;;;;;;;;20.00;71.80;;;;;;5159561;27;20297;-66
2023/07/31 09:31:45;;;;;;;;;;;20.00;71.80;;;;;;5159563;27;19967;-66
2023/07/31 09:34:13;;;;;;;;;;;20.00;71.80;;;;;;5159106;27;19926;-65
2023/07/31 09:37:01;;;;;;;;;;;20.10;71.80;;;;;;5177356;27;19918;-70
2023/07/31 09:39:26;;;;;;;;;;;20.00;71.80;;;;;;5177938;27;19962;-65
2023/07/31 09:41:54;;;;;;;;;;;20.00;71.80;;;;;;5176981;27;19919;-65
2023/07/31 09:44:20;;;;;;;;;;;20.00;71.70;;;;;;5177718;27;19918;-65
2023/07/31 09:46:45;;;;;;;;;;;20.00;71.80;;;;;;5177651;27;19926;-65
2023/07/31 09:49:12;;;;;;;;;;;20.00;71.80;;;;;;5159110;27;19919;-65
2023/07/31 09:51:38;;;;;;;;;;;20.00;71.80;;;;;;5158842;27;19926;-65
2023/07/31 09:54:09;;;;;;;;;;;20.00;72.50;;;;;;5158885;27;19926;-71
2023/07/31 09:56:34;;;;;;;;;;;20.00;71.80;;;;;;5158818;27;19929;-65
2023/07/31 09:59:01;;;;;;;;;;;20.00;71.90;;;;;;5158940;27;19919;-65
2023/07/31 10:01:26;;;;;;;;;;;20.00;71.90;;;;;;5155781;27;19919;-65
2023/07/31 10:03:52;;;;;;;;;;;20.00;71.90;;;;;;5138036;27;19919;-65
2023/07/31 10:06:19;;;;;;;;;;;20.00;71.90;;;;;;5156312;27;19944;-69
2023/07/31 10:08:46;;;;;;;;;;;20.00;71.90;;;;;;5156547;27;20364;-70
2023/07/31 10:11:14;;;;;;;;;;;20.00;71.90;;;;;;5138016;27;19919;-65
2023/07/31 10:13:41;;;;;;;;;;;20.00;71.90;;;;;;5137321;27;19937;-66
2023/07/31 10:16:06;;;;;;;;;;;20.00;71.90;;;;;;5137624;27;19919;-66
2023/07/31 10:18:32;;;;;;;;;;;20.00;71.90;;;;;;5156115;27;19926;-66
2023/07/31 10:20:58;;;;;;;;;;;20.00;71.90;;;;;;5156149;27;20369;-65
2023/07/31 10:23:24;;;;;;;;;;;20.00;72.00;;;;;;5137705;27;20339;-66
2023/07/31 10:25:50;;;;;;;;;;;20.00;72.00;;;;;;5156475;27;20086;-65
2023/07/31 10:28:16;;;;;;;;;;;20.00;72.00;;;;;;5137232;27;19919;-66
2023/07/31 10:30:42;;;;;;;;;;;20.00;72.00;;;;;;5137484;27;20055;-65
2023/07/31 10:33:07;;;;;;;;;;;20.00;72.00;;;;;;5155734;27;19919;-66
2023/07/31 10:35:33;;;;;;;;;;;20.00;72.00;;;;;;5137177;27;19979;-65
2023/07/31 10:38:10;;;;;;;;;;;20.00;72.10;;;;;;5137527;27;20017;-65
2023/07/31 10:40:36;;;;;;;;;;;20.00;72.00;;;;;;5155864;27;19942;-65
2023/07/31 10:43:02;;;;;;;;;;;20.00;72.10;;;;;;5137119;27;19919;-66
2023/07/31 10:45:32;;;;;;;;;;;20.00;72.10;;;;;;5137421;27;19919;-65
2023/07/31 10:47:58;;;;;;;;;;;20.00;72.20;;;;;;5136868;27;20394;-65
2023/07/31 10:50:23;;;;;;;;;;;20.10;72.30;;;;;;5136902;27;19958;-65
2023/07/31 10:52:50;;;;;;;;;;;20.00;72.20;;;;;;5154712;27;19954;-65
2023/07/31 10:55:32;;;;;;;;;;;20.00;72.20;;;;;;5136658;27;19930;-65
2023/07/31 10:58:04;;;;;;;;;;;20.00;72.30;;;;;;5137121;27;19926;-65
2023/07/31 11:00:30;;;;;;;;;;;20.10;72.30;;;;;;5153792;27;19967;-65
2023/07/31 11:02:57;;;;;;;;;;;20.10;72.20;;;;;;5154162;27;19927;-66
2023/07/31 11:05:40;;;;;;;;;;;20.10;72.10;;;;;;5157593;27;19987;-65
2023/07/31 11:08:13;;;;;;;;;;;20.00;72.10;;;;;;5176029;27;19919;-65
2023/07/31 11:10:39;;;;;;;;;;;20.00;72.20;;;;;;5157587;27;19919;-65
2023/07/31 11:13:05;;;;;;;;;;;20.00;72.30;;;;;;5175518;27;19929;-65
2023/07/31 11:15:31;;;;;;;;;;;20.00;72.10;;;;;;5157409;27;19923;-65
2023/07/31 11:17:58;;;;;;;;;;;20.00;72.20;;;;;;5157465;27;20388;-65
2023/07/31 11:20:24;;;;;;;;;;;20.10;72.20;;;;;;5157350;27;20395;-66
2023/07/31 11:22:50;;;;;;;;;;;20.10;72.20;;;;;;5157382;27;19960;-65
2023/07/31 11:25:16;;;;;;;;;;;20.00;72.10;;;;;;5175658;27;19979;-65
2023/07/31 11:27:43;;;;;;;;;;;20.00;72.10;;;;;;5175647;27;19918;-70
2023/07/31 11:30:09;;;;;;;;;;;20.00;72.20;;;;;;5175574;27;19919;-64
2023/07/31 11:32:36;;;;;;;;;;;20.10;72.30;;;;;;5175877;27;20062;-65
2023/07/31 11:35:01;;;;;;;;;;;20.10;72.30;;;;;;5175548;27;19931;-65
2023/07/31 11:37:42;;;;;;;;;;;20.10;72.40;;;;;;5175482;27;20382;-64
2023/07/31 11:40:08;;;;;;;;;;;20.00;72.40;;;;;;5156649;27;20377;-65
2023/07/31 11:42:35;;;;;;;;;;;20.10;72.30;;;;;;5156983;27;19970;-70
2023/07/31 11:45:02;;;;;;;;;;;20.10;72.50;;;;;;5175633;27;19923;-64
2023/07/31 11:47:28;;;;;;;;;;;20.10;72.50;;;;;;5156895;27;19926;-65
2023/07/31 11:49:54;;;;;;;;;;;20.10;72.60;;;;;;5175319;27;19922;-65
2023/07/31 11:52:20;;;;;;;;;;;20.10;72.60;;;;;;5175229;27;19919;-64
2023/07/31 11:54:46;;;;;;;;;;;20.10;72.60;;;;;;5175187;27;19925;-69
2023/07/31 11:57:12;;;;;;;;;;;20.10;72.50;;;;;;5156626;27;19930;-64
2023/07/31 11:59:38;;;;;;;;;;;20.10;72.50;;;;;;5175059;27;20017;-64
2023/07/31 12:02:03;;;;;;;;;;;20.10;72.50;;;;;;5165545;27;19981;-64
2023/07/31 12:04:29;;;;;;;;;;;20.10;72.60;;;;;;5135687;27;19920;-64
2023/07/31 12:06:55;;;;;;;;;;;20.10;72.50;;;;;;5154301;27;19919;-64
2023/07/31 12:09:20;;;;;;;;;;;20.10;72.60;;;;;;5154175;27;19919;-64
2023/07/31 12:11:47;;;;;;;;;;;20.10;72.70;;;;;;5135761;27;19919;-64
2023/07/31 12:14:29;;;;;;;;;;;20.00;72.80;;;;;;5153769;27;20290;-64
2023/07/31 12:19:37;;;;;;;;;;;20.10;72.80;;;;;;5110325;27;19918;-64
2023/07/31 12:22:10;;;;;;;;;;;20.10;72.80;;;;;;5108897;28;19920;-64
2023/07/31 12:24:37;;;;;;;;;;;20.10;72.70;;;;;;5109125;28;20300;-64
2023/07/31 12:27:08;;;;;;;;;;;20.10;72.80;;;;;;5108741;28;19920;-64
2023/07/31 12:29:35;;;;;;;;;;;20.10;73.00;;;;;;5107915;28;20291;-64
2023/07/31 12:32:01;;;;;;;;;;;20.10;73.10;;;;;;5108580;28;19977;-64
2023/07/31 12:34:26;;;;;;;;;;;20.10;73.30;;;;;;5108068;28;19924;-64
2023/07/31 12:36:54;;;;;;;;;;;20.10;73.20;;;;;;5108499;28;19930;-65
2023/07/31 12:39:19;;;;;;;;;;;20.10;73.30;;;;;;5107999;28;20374;-65
2023/07/31 12:41:44;;;;;;;;;;;20.10;73.30;;;;;;5109905;28;19978;-65
2023/07/31 12:44:10;;;;;;;;;;;20.10;73.20;;;;;;5108791;28;19927;-65
2023/07/31 12:46:35;;;;;;;;;;;20.10;73.20;;;;;;5107682;28;19920;-64
2023/07/31 12:49:02;;;;;;;;;;;20.10;73.10;;;;;;5108575;28;19927;-70
2023/07/31 12:51:27;;;;;;;;;;;20.10;73.00;;;;;;5108762;28;19935;-65
2023/07/31 12:53:53;;;;;;;;;;;20.10;73.10;;;;;;5109415;28;20433;-65
2023/07/31 12:56:18;;;;;;;;;;;20.10;72.90;;;;;;5108209;28;20250;-65
2023/07/31 12:58:44;;;;;;;;;;;20.10;73.10;;;;;;5109513;28;20397;-65
2023/07/31 13:01:09;;;;;;;;;;;20.10;73.00;;;;;;5107349;28;19919;-64
2023/07/31 13:03:35;;;;;;;;;;;20.10;73.10;;;;;;5108231;28;20283;-65
2023/07/31 13:06:01;;;;;;;;;;;20.10;73.20;;;;;;5109428;28;20371;-65
2023/07/31 13:08:26;;;;;;;;;;;20.10;73.30;;;;;;5108308;28;19926;-65
2023/07/31 13:10:52;;;;;;;;;;;20.10;73.10;;;;;;5108241;28;19920;-65
2023/07/31 13:13:17;;;;;;;;;;;20.10;73.20;;;;;;5109408;28;20374;-65
2023/07/31 13:15:43;;;;;;;;;;;20.10;73.30;;;;;;5107991;28;19920;-65
2023/07/31 13:18:09;;;;;;;;;;;20.10;73.30;;;;;;5107758;28;19981;-65
2023/07/31 13:20:35;;;;;;;;;;;20.10;74.00;;;;;;5108219;28;20287;-65
2023/07/31 13:23:00;;;;;;;;;;;20.10;73.40;;;;;;5109107;28;19927;-65
2023/07/31 13:25:25;;;;;;;;;;;20.10;73.30;;;;;;5107680;28;20006;-65
2023/07/31 13:27:51;;;;;;;;;;;20.10;73.50;;;;;;5107714;28;19935;-65
2023/07/31 13:30:16;;;;;;;;;;;20.10;73.30;;;;;;5098223;28;20279;-65
2023/07/31 13:32:42;;;;;;;;;;;20.20;73.70;;;;;;5094251;28;20049;-65
2023/07/31 13:35:08;;;;;;;;;;;20.10;73.40;;;;;;5093837;28;19920;-65
2023/07/31 13:37:34;;;;;;;;;;;20.20;73.50;;;;;;5095096;28;20045;-65
2023/07/31 13:40:00;;;;;;;;;;;20.10;73.60;;;;;;5093965;28;20018;-65
2023/07/31 13:42:25;;;;;;;;;;;20.10;73.60;;;;;;5094123;28;20279;-65
2023/07/31 13:44:52;;;;;;;;;;;20.10;73.60;;;;;;5093896;28;20011;-65
2023/07/31 13:47:17;;;;;;;;;;;20.10;73.60;;;;;;5094216;28;19920;-64
2023/07/31 13:49:43;;;;;;;;;;;20.10;73.70;;;;;;5093669;28;19927;-65
2023/07/31 13:52:08;;;;;;;;;;;20.20;73.70;;;;;;5095027;28;19967;-65
2023/07/31 13:54:34;;;;;;;;;;;20.20;73.70;;;;;;5093638;28;20036;-65
2023/07/31 13:56:59;;;;;;;;;;;20.10;73.80;;;;;;5093922;28;20015;-65
2023/07/31 13:59:25;;;;;;;;;;;20.20;73.80;;;;;;5094720;28;20089;-65
2023/07/31 14:01:50;;;;;;;;;;;20.20;73.50;;;;;;5093591;28;20367;-66
2023/07/31 14:04:17;;;;;;;;;;;20.10;73.70;;;;;;5094917;28;19926;-65
2023/07/31 14:06:43;;;;;;;;;;;20.20;73.70;;;;;;5093837;28;20006;-65
2023/07/31 14:09:08;;;;;;;;;;;20.10;73.90;;;;;;5094676;28;20379;-65
2023/07/31 14:11:34;;;;;;;;;;;20.20;73.70;;;;;;5093503;28;19966;-65
2023/07/31 14:13:59;;;;;;;;;;;20.20;73.80;;;;;;5093527;28;19931;-65